»·PEaware :: N573HA KSNA-KPOC

N573HA :: KSNA-KPOC

FLIGHT INFORMATION

Flight Status: Arrived
Operator: Privately registered:
United States
More flights under this callsign
Pilot: Ravi V. (22543)
Aircraft: CESSNA 172 SKYHAWK
(C172)
More flights by this aircraft type
Origin: KSNA John Wayne-Orange Co
United States
Destination: KPOC Brackett
United States
More flights between these airports :: More routes between these airports
Route: SLI V8 POXKU V363 POM
File this flight plan on PilotEdge
Remarks:
Altitude:
(Current/Filed)
5,000ft
Speed:
(Current/Filed)
120kts
Departed: 05-Aug-23 09:39 AM
Arrived: 05-Aug-23 10:17 AM
Distance/Time
Traveled:
25nm/0:38
Distance/Time
To Go:
Arrived

Flight Plot

Page will automatically refresh every two minutes.


Map Options




Map Legend


Flown Route
Filed Route
Departure Airport
Arrival Airport
Navaid (VOR, NDB)
Fix

Horizontal Profiles

Position Reports

Time Latitude Longitude Heading Altitude Ground
Speed
05-Aug-23 09:25 33.670656 -117.867922 211 60ft 0kts
05-Aug-23 09:26 33.670656 -117.867922 211 60ft 0kts
05-Aug-23 09:27 33.670656 -117.867922 211 60ft 0kts
05-Aug-23 09:28 33.670622 -117.867963 237 60ft 2kts
05-Aug-23 09:29 33.671053 -117.868592 342 60ft 1kts
05-Aug-23 09:30 33.672120 -117.868229 30 60ft 8kts
05-Aug-23 09:31 33.673669 -117.867398 25 60ft 7kts
05-Aug-23 09:32 33.675871 -117.865982 26 60ft 7kts
05-Aug-23 09:33 33.678242 -117.864488 26 60ft 11kts
05-Aug-23 09:34 33.679726 -117.863558 8 60ft 0kts
05-Aug-23 09:35 33.679726 -117.863558 8 60ft 0kts
05-Aug-23 09:36 33.679782 -117.863552 1 60ft 2kts
05-Aug-23 09:37 33.679305 -117.864642 196 60ft 17kts
05-Aug-23 09:38 33.664858 -117.878391 237 533ft 83kts
05-Aug-23 09:39 33.652935 -117.901421 235 1320ft 81kts
05-Aug-23 09:40 33.651401 -117.924932 322 2052ft 79kts
05-Aug-23 09:41 33.669201 -117.941728 314 2725ft 83kts
05-Aug-23 09:42 33.687579 -117.958708 316 3382ft 84kts
05-Aug-23 09:43 33.704928 -117.977414 318 4011ft 83kts
05-Aug-23 09:44 33.721899 -117.996861 278 4548ft 91kts
05-Aug-23 09:45 33.737084 -118.017138 325 5070ft 90kts
05-Aug-23 09:46 33.762547 -118.036259 323 5025ft 114kts
05-Aug-23 09:47 33.784423 -118.024237 77 4978ft 114kts
05-Aug-23 09:48 33.790632 -117.987727 66 5073ft 111kts
05-Aug-23 09:49 33.808812 -117.957979 46 5124ft 111kts
05-Aug-23 09:50 33.823615 -117.925887 81 5126ft 114kts
05-Aug-23 09:51 33.831485 -117.889466 66 5242ft 107kts
05-Aug-23 09:52 33.843499 -117.854469 73 5157ft 114kts
05-Aug-23 09:53 33.852637 -117.818652 74 5098ft 113kts
05-Aug-23 09:54 33.862210 -117.782288 71 5047ft 113kts
05-Aug-23 09:55 33.870661 -117.746392 71 5106ft 111kts
05-Aug-23 09:56 33.882833 -117.712082 67 5133ft 111kts
05-Aug-23 09:57 33.890044 -117.675455 80 5126ft 113kts
05-Aug-23 09:58 33.892818 -117.638033 76 5164ft 110kts
05-Aug-23 09:59 33.904796 -117.603798 68 5170ft 111kts
05-Aug-23 10:00 33.915688 -117.568905 75 5147ft 114kts
05-Aug-23 10:01 33.919172 -117.531695 79 5066ft 115kts
05-Aug-23 10:02 33.947632 -117.520074 354 4144ft 116kts
05-Aug-23 10:03 33.977479 -117.523900 340 4046ft 86kts
05-Aug-23 10:04 34.001351 -117.531176 358 4011ft 89kts
05-Aug-23 10:05 34.026147 -117.529971 359 4047ft 87kts
05-Aug-23 10:06 34.050060 -117.522773 16 4054ft 88kts
05-Aug-23 10:07 34.073864 -117.523913 303 3909ft 95kts
05-Aug-23 10:08 34.071182 -117.555439 266 3364ft 94kts
05-Aug-23 10:09 34.073122 -117.586073 282 2995ft 90kts
05-Aug-23 10:10 34.078592 -117.615949 286 2799ft 90kts
05-Aug-23 10:11 34.084272 -117.645400 276 2707ft 89kts
05-Aug-23 10:12 34.085406 -117.675298 263 2732ft 88kts
05-Aug-23 10:13 34.087156 -117.705601 272 2470ft 94kts
05-Aug-23 10:14 34.089335 -117.737546 280 1756ft 91kts
05-Aug-23 10:15 34.090397 -117.763917 273 1336ft 70kts
05-Aug-23 10:16 34.091436 -117.783875 274 991ft 22kts
05-Aug-23 10:17 34.090165 -117.783333 116 994ft 0kts

Navigation Log

Ident Type
Flight plan parsing failed, navigation log unavailable